Time;durP1;ratioP1;P1;durP2;ratioP2;P2;SDS_P1;SDS_P2;PMS_P1;PMS_P2;Temp;Humidity;BMP_temperature;BMP_pressure;BME280_temperature;BME280_humidity;BME280_pressure;Samples;Min_cycle;Max_cycle;Signal;HPM_P1;HPM_P2
2022/05/12 00:02:28;;;;;;;5.63;1.67;;;;;;;25.39;32.56;101767.97;5075054;28;20033;-43
2022/05/12 00:04:57;;;;;;;4.50;1.38;;;;;;;25.55;32.33;101788.47;5074763;28;20108;-48
2022/05/12 00:07:25;;;;;;;3.70;1.40;;;;;;;25.51;32.54;101783.13;5074733;28;20032;-47
2022/05/12 00:09:54;;;;;;;4.22;1.40;;;;;;;25.47;32.37;101782.19;5073506;28;20087;-47
2022/05/12 00:12:23;;;;;;;7.10;1.40;;;;;;;25.52;32.40;101798.03;5074343;28;20508;-42
2022/05/12 00:14:52;;;;;;;5.93;1.63;;;;;;;25.43;32.58;101786.47;5074904;28;20376;-46
2022/05/12 00:17:20;;;;;;;3.58;1.17;;;;;;;25.52;32.23;101792.78;5074676;28;20029;-42
2022/05/12 00:19:49;;;;;;;4.38;1.63;;;;;;;25.47;32.48;101796.19;5074055;28;20025;-42
2022/05/12 00:22:17;;;;;;;4.03;1.35;;;;;;;25.53;32.02;101802.44;5074346;28;20098;-42
2022/05/12 00:24:46;;;;;;;3.35;1.10;;;;;;;25.50;32.24;101802.38;5074492;28;20425;-44
2022/05/12 00:27:15;;;;;;;3.65;1.35;;;;;;;25.48;32.24;101802.34;5074510;28;20035;-43
2022/05/12 00:29:43;;;;;;;5.88;1.40;;;;;;;25.48;32.34;101800.59;5074431;28;20040;-41
2022/05/12 00:32:12;;;;;;;5.38;1.30;;;;;;;25.38;32.30;101788.13;5074409;28;20025;-41
2022/05/12 00:34:40;;;;;;;3.10;1.15;;;;;;;25.31;32.30;101776.59;5073705;28;20181;-41
2022/05/12 00:37:09;;;;;;;2.92;1.35;;;;;;;25.46;32.30;101793.56;5074120;28;20103;-50
2022/05/12 00:39:38;;;;;;;4.10;0.90;;;;;;;25.41;31.87;101788.16;5074244;28;20016;-47
2022/05/12 00:42:06;;;;;;;4.05;1.42;;;;;;;25.39;32.18;101797.75;5074025;28;20471;-42
2022/05/12 00:44:35;;;;;;;2.78;0.95;;;;;;;25.39;32.24;101796.88;5073410;28;20032;-42
2022/05/12 00:47:04;;;;;;;5.78;1.83;;;;;;;25.33;32.14;101800.25;5073835;28;20029;-43
2022/05/12 00:49:36;;;;;;;4.93;1.25;;;;;;;25.30;32.13;101795.84;5074028;28;20484;-41
2022/05/12 00:52:10;;;;;;;5.22;1.30;;;;;;;25.30;31.90;101790.59;5074116;28;20484;-50
2022/05/12 00:54:46;;;;;;;3.78;1.65;;;;;;;25.33;32.00;101785.38;5073595;28;20028;-43
2022/05/12 00:57:21;;;;;;;5.22;1.33;;;;;;;25.34;31.71;101776.63;5072949;28;20488;-42
2022/05/12 00:59:50;;;;;;;3.60;1.25;;;;;;;25.34;31.69;101778.41;5073769;28;20457;-42
2022/05/12 01:02:20;;;;;;;4.18;1.60;;;;;;;25.30;31.83;101774.81;5074040;28;20048;-41
2022/05/12 01:04:49;;;;;;;2.75;1.00;;;;;;;25.31;31.65;101780.94;5072454;28;20032;-47
2022/05/12 01:07:18;;;;;;;3.80;1.33;;;;;;;25.36;31.47;101781.03;5072670;28;20020;-45
2022/05/12 01:09:46;;;;;;;3.35;1.23;;;;;;;25.33;31.89;101774.00;5073478;28;20024;-42
2022/05/12 01:12:14;;;;;;;4.22;1.38;;;;;;;25.33;31.77;101774.88;5073365;28;20063;-49
2022/05/12 01:14:43;;;;;;;3.35;1.08;;;;;;;25.31;31.52;101780.94;5074023;28;20105;-47
2022/05/12 01:17:11;;;;;;;3.38;1.00;;;;;;;25.28;31.59;101779.16;5073560;28;20031;-42
2022/05/12 01:19:42;;;;;;;3.55;0.95;;;;;;;25.26;31.64;101777.34;5073265;28;20029;-44
2022/05/12 01:22:17;;;;;;;3.42;1.23;;;;;;;25.21;31.36;101774.63;5073384;28;20048;-42
2022/05/12 01:24:46;;;;;;;2.85;1.00;;;;;;;25.24;31.63;101785.19;5072175;28;20108;-41
2022/05/12 01:27:24;;;;;;;3.13;1.15;;;;;;;25.19;31.84;101781.56;5073467;28;20347;-42
2022/05/12 01:29:55;;;;;;;3.92;1.05;;;;;;;25.21;31.40;101790.38;5089081;28;20029;-42
2022/05/12 01:32:27;;;;;;;2.42;1.00;;;;;;;25.00;31.81;101765.44;5073697;28;20024;-49
2022/05/12 01:34:56;;;;;;;2.97;1.25;;;;;;;25.16;31.48;101789.38;5072963;28;20024;-47
2022/05/12 01:37:26;;;;;;;2.65;0.75;;;;;;;25.09;31.78;101785.75;5073369;28;20017;-41
2022/05/12 01:39:54;;;;;;;2.65;1.10;;;;;;;25.13;31.37;101786.72;5073220;28;20032;-47
2022/05/12 01:42:23;;;;;;;2.83;1.10;;;;;;;25.18;31.36;101787.69;5073484;28;20371;-47
2022/05/12 01:44:52;;;;;;;2.90;1.20;;;;;;;25.18;31.21;101791.22;5073046;28;19957;-43
2022/05/12 01:47:20;;;;;;;3.22;1.10;;;;;;;25.10;31.32;101778.78;5073148;28;20039;-41
2022/05/12 01:49:50;;;;;;;2.47;0.80;;;;;;;25.14;31.37;101770.13;5073293;28;20454;-41
2022/05/12 01:52:18;;;;;;;5.10;1.10;;;;;;;25.15;31.37;101787.66;5073214;28;20078;-42
2022/05/12 01:54:47;;;;;;;2.80;0.98;;;;;;;25.14;31.28;101788.50;5073422;28;20493;-42
2022/05/12 01:57:16;;;;;;;3.13;1.27;;;;;;;25.09;31.03;101798.00;5071953;28;20031;-42
2022/05/12 01:59:44;;;;;;;2.22;0.90;;;;;;;25.05;31.03;101797.06;5072612;28;20021;-43
2022/05/12 02:02:13;;;;;;;1.67;0.90;;;;;;;24.97;31.32;101796.91;5072919;28;20034;-42
2022/05/12 02:04:41;;;;;;;3.25;1.17;;;;;;;24.98;31.41;101805.63;5072553;28;20060;-42
2022/05/12 02:07:11;;;;;;;2.35;0.95;;;;;;;24.96;31.44;101803.00;5073250;28;20056;-44
2022/05/12 02:09:39;;;;;;;3.53;1.02;;;;;;;24.95;31.10;101808.19;5073164;28;20381;-51
2022/05/12 02:12:09;;;;;;;2.78;0.98;;;;;;;24.94;31.26;101809.03;5071826;28;20028;-42
2022/05/12 02:14:37;;;;;;;3.15;1.02;;;;;;;24.96;30.97;101810.88;5073293;28;20024;-46
2022/05/12 02:17:06;;;;;;;2.20;0.80;;;;;;;24.94;31.13;101811.66;5088380;28;20115;-42
2022/05/12 02:19:34;;;;;;;2.75;1.08;;;;;;;24.91;30.97;101816.84;5072779;28;20028;-45
2022/05/12 02:22:03;;;;;;;2.72;0.90;;;;;;;24.88;31.08;101809.78;5072810;28;20045;-48
2022/05/12 02:24:32;;;;;;;1.98;0.75;;;;;;;24.86;30.93;101807.16;5072837;28;20025;-47
2022/05/12 02:27:01;;;;;;;2.53;0.93;;;;;;;24.85;31.15;101802.75;5072708;28;20020;-46
2022/05/12 02:29:29;;;;;;;2.20;0.98;;;;;;;24.93;31.05;101804.63;5072742;28;20078;-49
2022/05/12 02:31:57;;;;;;;2.22;1.25;;;;;;;24.83;31.10;101803.53;5072620;28;20043;-46
2022/05/12 02:34:26;;;;;;;1.90;0.65;;;;;;;24.80;30.99;101814.00;5072932;28;20032;-42
2022/05/12 02:37:04;;;;;;;2.30;1.05;;;;;;;24.83;31.16;101811.41;5072647;28;20056;-44
2022/05/12 02:39:36;;;;;;;2.63;1.00;;;;;;;24.83;30.80;101803.53;5071655;28;20031;-42
2022/05/12 02:42:06;;;;;;;3.08;1.00;;;;;;;24.87;30.94;101808.94;5072880;28;20078;-42
2022/05/12 02:44:34;;;;;;;3.55;1.00;;;;;;;24.87;30.76;101815.91;5072572;28;20024;-48
2022/05/12 02:47:04;;;;;;;2.95;1.17;;;;;;;24.81;30.89;101815.78;5072613;28;20440;-42
2022/05/12 02:49:33;;;;;;;4.13;1.30;;;;;;;24.77;30.75;101819.16;5071474;28;20073;-48
2022/05/12 02:52:02;;;;;;;2.75;0.95;;;;;;;24.75;31.00;101823.50;5072251;28;20493;-42
2022/05/12 02:54:31;;;;;;;2.70;0.98;;;;;;;24.78;30.83;101832.31;5072278;28;20021;-41
2022/05/12 02:57:00;;;;;;;1.52;0.70;;;;;;;24.79;30.80;101835.84;5072861;28;20445;-48
2022/05/12 02:59:28;;;;;;;2.15;0.80;;;;;;;24.85;30.48;101822.84;5075797;28;20035;-45
2022/05/12 03:01:58;;;;;;;2.38;0.85;;;;;;;24.83;30.53;101835.03;5076158;28;20474;-42
2022/05/12 03:04:27;;;;;;;3.15;0.90;;;;;;;24.76;30.60;101835.75;5075742;28;20029;-50
2022/05/12 03:06:55;;;;;;;1.92;0.75;;;;;;;24.73;30.87;101842.72;5075889;28;20389;-43
2022/05/12 03:09:24;;;;;;;2.40;0.90;;;;;;;24.68;30.72;101843.41;5075880;28;20060;-45
2022/05/12 03:11:53;;;;;;;2.92;0.93;;;;;;;24.64;30.72;101831.97;5075822;28;20104;-41
2022/05/12 03:14:22;;;;;;;2.60;1.00;;;;;;;24.75;30.59;101828.75;5075821;28;20028;-45
2022/05/12 03:16:53;;;;;;;2.35;0.77;;;;;;;24.65;30.84;101831.13;5075736;28;20420;-48
2022/05/12 03:19:22;;;;;;;3.25;1.30;;;;;;;24.69;30.88;101838.19;5076292;28;20028;-42
2022/05/12 03:21:51;;;;;;;2.40;1.10;;;;;;;24.65;30.53;101831.13;5075280;28;20031;-42
2022/05/12 03:24:20;;;;;;;3.15;1.27;;;;;;;24.60;30.86;101837.09;5075539;28;20029;-48
2022/05/12 03:26:49;;;;;;;3.67;1.00;;;;;;;24.64;30.54;101852.06;5075335;28;20025;-41
2022/05/12 03:29:20;;;;;;;1.65;0.70;;;;;;;24.64;30.67;101839.84;5074258;28;20101;-41
2022/05/12 03:31:49;;;;;;;2.65;1.23;;;;;;;24.60;30.85;101838.00;5075666;28;20452;-41
2022/05/12 03:34:17;;;;;;;3.03;0.93;;;;;;;24.68;30.87;101835.56;5075158;28;20082;-49
2022/05/12 03:36:46;;;;;;;4.38;1.10;;;;;;;24.67;30.62;101841.66;5075481;28;20028;-41
2022/05/12 03:39:14;;;;;;;2.17;0.85;;;;;;;24.59;30.65;101836.22;5075469;28;20029;-42
2022/05/12 03:41:43;;;;;;;3.17;1.05;;;;;;;24.61;30.53;101836.25;5075421;28;20473;-47
2022/05/12 03:46:59;;;;;;;2.45;1.10;;;;;;;24.60;30.59;101819.63;5071397;28;20058;-48
2022/05/12 03:49:27;;;;;;;2.30;0.60;;;;;;;24.61;30.71;101834.53;5075467;28;20031;-47
2022/05/12 03:51:56;;;;;;;4.22;1.30;;;;;;;24.63;30.44;101831.91;5075223;28;20020;-41
2022/05/12 03:54:25;;;;;;;3.03;0.88;;;;;;;24.51;30.54;101822.91;5075004;28;20059;-41
2022/05/12 03:56:53;;;;;;;2.55;0.90;;;;;;;24.58;30.68;101824.81;5074836;28;20037;-47
2022/05/12 03:59:22;;;;;;;5.03;1.30;;;;;;;24.52;30.42;101815.91;5073693;28;20020;-42
2022/05/12 04:01:50;;;;;;;3.30;1.00;;;;;;;24.51;30.82;101824.63;5074996;28;20025;-42
2022/05/12 04:04:19;;;;;;;1.73;0.80;;;;;;;24.48;30.51;101828.06;5074789;28;20036;-48
2022/05/12 04:06:48;;;;;;;3.92;1.20;;;;;;;24.47;30.61;101830.69;5074847;28;20104;-47
2022/05/12 04:09:16;;;;;;;3.15;0.95;;;;;;;24.45;30.37;101827.13;5073870;28;20036;-48
2022/05/12 04:11:45;;;;;;;2.17;0.75;;;;;;;24.45;30.43;101821.88;5074805;28;20028;-43
2022/05/12 04:14:13;;;;;;;2.35;1.13;;;;;;;24.45;30.43;101832.38;5074865;28;20087;-47
2022/05/12 04:16:42;;;;;;;1.77;0.77;;;;;;;24.43;30.54;101829.69;5074765;28;20033;-50
2022/05/12 04:19:10;;;;;;;2.05;0.85;;;;;;;24.42;30.63;101823.56;5075094;28;20054;-47
2022/05/12 04:21:38;;;;;;;2.30;0.93;;;;;;;24.43;30.39;101827.06;5074175;28;20029;-51
2022/05/12 04:24:08;;;;;;;5.28;0.88;;;;;;;24.42;30.63;101827.91;5074450;28;20037;-47
2022/05/12 04:26:38;;;;;;;2.53;0.88;;;;;;;24.43;30.55;101827.06;5074578;28;20466;-42
2022/05/12 04:29:07;;;;;;;1.92;0.70;;;;;;;24.42;30.11;101826.19;5074537;28;20454;-42
2022/05/12 04:31:34;;;;;;;1.58;0.80;;;;;;;24.39;30.38;101826.13;5074049;28;20032;-41
2022/05/12 04:36:50;;;;;;;2.13;0.80;;;;;;;24.37;30.53;101825.19;5069609;28;20035;-44
2022/05/12 04:39:19;;;;;;;2.05;1.00;;;;;;;24.35;30.15;101833.88;5074369;28;20096;-41
2022/05/12 04:41:47;;;;;;;2.92;1.20;;;;;;;24.37;30.16;101832.19;5074305;28;20035;-41
2022/05/12 04:44:16;;;;;;;3.35;0.95;;;;;;;24.41;30.17;101842.78;5074186;28;20036;-41
2022/05/12 04:46:44;;;;;;;1.92;0.88;;;;;;;24.37;30.20;101838.28;5074101;28;20449;-45
2022/05/12 04:49:13;;;;;;;2.17;1.05;;;;;;;24.30;30.17;101833.75;5074227;28;20386;-41
2022/05/12 04:51:42;;;;;;;2.28;0.90;;;;;;;24.23;30.73;101831.81;5072415;28;20120;-43
2022/05/12 04:54:10;;;;;;;1.95;0.70;;;;;;;24.41;30.39;101831.38;5073922;28;20070;-46
2022/05/12 04:56:39;;;;;;;5.32;1.00;;;;;;;24.33;30.36;101828.56;5074093;28;20052;-47
2022/05/12 04:59:09;;;;;;;2.08;0.73;;;;;;;24.31;30.73;101832.00;5073826;28;20020;-41
2022/05/12 05:01:38;;;;;;;1.67;0.80;;;;;;;24.33;30.34;101841.69;5073745;28;20437;-43
2022/05/12 05:04:07;;;;;;;2.15;0.75;;;;;;;24.31;30.53;101838.16;5074132;28;20021;-43
2022/05/12 05:06:35;;;;;;;3.80;1.20;;;;;;;24.27;30.53;101829.31;5072631;28;20029;-42
2022/05/12 05:09:05;;;;;;;2.15;0.93;;;;;;;24.33;30.75;101839.06;5073611;28;20466;-43
2022/05/12 05:11:37;;;;;;;2.38;0.65;;;;;;;24.28;30.66;101840.69;5073738;28;20082;-50
2022/05/12 05:14:06;;;;;;;2.67;0.95;;;;;;;24.26;30.34;101834.53;5072346;28;20021;-41
2022/05/12 05:16:35;;;;;;;6.20;1.05;;;;;;;24.30;30.30;101846.88;5073562;28;20021;-41
2022/05/12 05:19:04;;;;;;;4.45;1.17;;;;;;;24.26;30.73;101848.50;5073500;28;20027;-41
2022/05/12 05:21:32;;;;;;;1.92;0.98;;;;;;;24.28;30.95;101851.19;5073302;28;20032;-42
2022/05/12 05:24:01;;;;;;;5.38;1.00;;;;;;;24.27;30.83;101852.03;5073150;28;20110;-45
2022/05/12 05:26:29;;;;;;;1.83;0.70;;;;;;;24.29;30.56;101850.34;5072177;28;20024;-45
2022/05/12 05:28:58;;;;;;;2.47;1.15;;;;;;;24.30;30.77;101852.13;5073460;28;20466;-41
2022/05/12 05:31:27;;;;;;;3.63;1.00;;;;;;;24.24;31.10;101858.06;5072179;28;20048;-46
2022/05/12 05:33:55;;;;;;;3.53;1.00;;;;;;;24.33;30.79;101865.28;5073532;28;20024;-42
2022/05/12 05:36:24;;;;;;;3.50;0.90;;;;;;;24.33;30.60;101874.91;5073140;28;20098;-43
2022/05/12 05:38:53;;;;;;;3.67;1.17;;;;;;;24.36;30.88;101870.63;5073181;28;20024;-42
2022/05/12 05:41:22;;;;;;;2.55;0.80;;;;;;;24.38;30.61;101874.16;5071980;28;20036;-44
2022/05/12 05:43:51;;;;;;;4.40;1.00;;;;;;;24.37;30.81;101866.28;5073168;28;20028;-43
2022/05/12 05:46:19;;;;;;;2.30;0.77;;;;;;;24.47;30.83;101876.13;5073387;28;20059;-47
2022/05/12 05:48:50;;;;;;;3.67;1.20;;;;;;;24.56;30.93;101872.84;5071848;28;20375;-44
2022/05/12 05:54:06;;;;;;;2.97;1.05;;;;;;;24.66;30.82;101877.47;5065408;28;20043;-43
2022/05/12 05:56:34;;;;;;;1.63;0.73;;;;;;;24.65;31.05;101873.09;5073198;28;20470;-41
2022/05/12 05:59:03;;;;;;;1.75;0.82;;;;;;;24.60;30.84;101872.09;5072975;28;20020;-47
2022/05/12 06:01:32;;;;;;;2.85;0.93;;;;;;;24.64;31.15;101892.31;5073410;28;20469;-44
2022/05/12 06:04:00;;;;;;;5.78;0.90;;;;;;;24.66;30.87;101895.84;5072829;28;20036;-41
2022/05/12 06:06:29;;;;;;;3.30;1.20;;;;;;;24.65;31.17;101893.19;5073038;28;20048;-44
2022/05/12 06:08:57;;;;;;;2.42;0.80;;;;;;;24.66;30.99;101905.47;5072956;28;20070;-46
2022/05/12 06:11:26;;;;;;;5.53;1.25;;;;;;;24.63;31.36;101908.00;5072854;28;20107;-42
2022/05/12 06:13:54;;;;;;;2.88;0.95;;;;;;;24.64;31.41;101901.91;5072472;28;20414;-42
2022/05/12 06:16:23;;;;;;;2.10;1.02;;;;;;;24.62;31.71;101898.34;5072910;28;20032;-41
2022/05/12 06:18:51;;;;;;;6.07;1.23;;;;;;;24.70;31.39;101907.34;5073008;28;20028;-42
2022/05/12 06:21:20;;;;;;;4.88;1.15;;;;;;;24.69;31.51;101910.78;5072880;28;20089;-41
2022/05/12 06:23:49;;;;;;;3.85;1.40;;;;;;;24.75;31.75;101907.47;5055296;28;20084;-47
2022/05/12 06:26:17;;;;;;;4.43;1.13;;;;;;;24.70;31.76;101909.97;5072498;28;20035;-41
2022/05/12 06:28:46;;;;;;;5.80;1.08;;;;;;;24.75;31.42;101915.34;5072570;28;20035;-46
2022/05/12 06:31:17;;;;;;;4.03;0.98;;;;;;;24.64;31.72;101901.91;5071490;28;20035;-43
2022/05/12 06:33:45;;;;;;;4.35;1.35;;;;;;;24.73;32.00;101908.31;5075691;28;20024;-48
2022/05/12 06:36:14;;;;;;;5.30;1.15;;;;;;;24.70;31.95;101918.72;5076740;28;20037;-44
2022/05/12 06:38:42;;;;;;;2.92;0.85;;;;;;;24.75;32.08;101923.19;5076630;28;20028;-47
2022/05/12 06:41:11;;;;;;;4.03;0.98;;;;;;;24.68;32.24;101915.13;5075238;28;20032;-41
2022/05/12 06:43:39;;;;;;;4.43;1.25;;;;;;;24.80;31.75;101921.59;5075338;28;20052;-46
2022/05/12 06:46:12;;;;;;;3.92;1.15;;;;;;;24.78;32.42;101926.78;5076437;28;20478;-43
2022/05/12 06:48:40;;;;;;;2.90;0.80;;;;;;;24.78;32.10;101931.16;5076322;28;20028;-46
2022/05/12 06:51:08;;;;;;;4.57;1.08;;;;;;;24.76;32.64;101927.59;5076424;28;20427;-46
2022/05/12 06:53:37;;;;;;;2.53;0.98;;;;;;;24.80;32.83;101918.97;5076140;28;20401;-42
2022/05/12 06:56:07;;;;;;;4.35;1.17;;;;;;;24.80;32.74;101919.84;5076246;28;20100;-42
2022/05/12 06:58:36;;;;;;;5.47;1.10;;;;;;;24.85;32.95;101931.34;5076103;28;20028;-42
2022/05/12 07:01:04;;;;;;;5.82;1.23;;;;;;;24.94;32.74;101937.66;5075908;28;20111;-44
2022/05/12 07:03:33;;;;;;;4.57;1.15;;;;;;;24.92;33.10;101935.00;5075954;28;20020;-48
2022/05/12 07:06:03;;;;;;;4.03;1.23;;;;;;;24.99;33.13;101926.41;5075865;28;20028;-45
2022/05/12 07:08:31;;;;;;;4.35;1.15;;;;;;;24.89;32.89;101903.44;5075856;28;20474;-48
2022/05/12 07:11:00;;;;;;;4.95;1.00;;;;;;;24.93;32.86;101905.28;5075970;28;20382;-41
2022/05/12 07:13:28;;;;;;;5.18;1.23;;;;;;;25.02;33.30;101912.50;5074722;28;20029;-51
2022/05/12 07:15:57;;;;;;;6.22;1.27;;;;;;;25.09;32.96;101918.78;5076611;28;20458;-42
2022/05/12 07:18:25;;;;;;;2.40;1.27;;;;;;;25.10;33.08;101924.03;5075822;28;20111;-42
2022/05/12 07:26:47;;;;;;;4.10;1.48;;;;;;;25.22;33.16;101936.56;5071745;28;20029;-45
2022/05/12 07:29:18;;;;;;;3.92;1.10;;;;;;;25.23;33.23;101948.00;5075520;28;20032;-49
2022/05/12 07:31:48;;;;;;;5.72;1.65;;;;;;;25.29;33.39;101955.97;5075645;28;20028;-47
2022/05/12 07:34:17;;;;;;;7.65;1.52;;;;;;;25.27;33.16;101963.84;5074506;28;20036;-42
2022/05/12 07:36:48;;;;;;;4.18;1.05;;;;;;;25.30;33.10;101958.66;5075452;28;20559;-42
2022/05/12 07:39:17;;;;;;;5.05;1.15;;;;;;;25.32;33.38;101956.06;5075782;28;20028;-42
2022/05/12 07:41:46;;;;;;;4.47;1.73;;;;;;;25.34;33.28;101954.38;5075643;28;20359;-42
2022/05/12 07:44:17;;;;;;;5.53;1.75;;;;;;;25.40;33.42;101951.84;5073940;28;20036;-41
2022/05/12 07:46:46;;;;;;;4.32;1.20;;;;;;;25.41;33.27;101956.25;5075241;28;20033;-44
2022/05/12 07:49:15;;;;;;;5.60;1.33;;;;;;;25.42;33.10;101950.19;5075263;28;20049;-46
2022/05/12 07:51:43;;;;;;;4.97;1.30;;;;;;;25.50;33.46;101960.88;5075099;28;20462;-50
2022/05/12 07:54:12;;;;;;;6.47;1.58;;;;;;;25.51;33.23;101962.63;5075054;28;20028;-42
2022/05/12 07:56:41;;;;;;;5.72;1.52;;;;;;;25.55;33.34;101967.13;5075334;28;20104;-47
2022/05/12 07:59:09;;;;;;;6.45;1.42;;;;;;;25.64;33.20;101958.56;5075224;28;20412;-41
2022/05/12 08:01:38;;;;;;;4.75;1.33;;;;;;;25.62;33.50;101970.75;5075232;28;20031;-42
2022/05/12 08:04:07;;;;;;;5.65;1.52;;;;;;;25.66;33.47;101976.97;5074672;28;20032;-42
2022/05/12 08:06:35;;;;;;;4.53;1.40;;;;;;;25.70;33.38;101974.47;5074905;28;20426;-42
2022/05/12 08:09:04;;;;;;;5.35;1.67;;;;;;;25.73;33.29;101977.13;5074690;28;20039;-42
2022/05/12 08:11:33;;;;;;;6.65;1.70;;;;;;;25.77;33.15;101973.72;5090545;28;20021;-41
2022/05/12 08:14:01;;;;;;;5.30;1.55;;;;;;;25.81;33.20;101977.31;5074833;28;20031;-41
2022/05/12 08:16:30;;;;;;;6.80;1.60;;;;;;;25.80;33.30;101975.56;5074821;28;20028;-41
2022/05/12 08:18:59;;;;;;;7.70;1.95;;;;;;;25.83;33.43;101979.97;5074122;28;20037;-45
2022/05/12 08:21:27;;;;;;;6.88;1.73;;;;;;;25.88;33.34;101973.94;5074643;28;20470;-42
2022/05/12 08:23:55;;;;;;;4.88;1.35;;;;;;;25.76;33.02;101950.91;5074493;28;20044;-42
2022/05/12 08:26:24;;;;;;;4.18;1.30;;;;;;;25.98;33.10;101963.66;5074734;28;20027;-41
2022/05/12 08:28:53;;;;;;;4.65;1.55;;;;;;;25.97;33.20;101962.75;5089746;28;20386;-42
2022/05/12 08:31:27;;;;;;;7.07;1.90;;;;;;;25.99;33.31;101961.03;5074533;28;20093;-48
2022/05/12 08:33:55;;;;;;;4.10;1.50;;;;;;;26.02;33.07;101960.19;5073168;28;20036;-43
2022/05/12 08:36:24;;;;;;;6.50;1.55;;;;;;;26.05;33.22;101961.16;5074462;28;20102;-50
2022/05/12 08:38:53;;;;;;;6.50;1.60;;;;;;;26.07;32.90;101953.31;5072902;28;20067;-48
2022/05/12 08:41:29;;;;;;;6.30;2.00;;;;;;;26.08;32.89;101961.22;5073583;28;20021;-44
2022/05/12 08:44:10;;;;;;;8.57;2.35;;;;;;;26.15;32.87;101954.34;5074062;28;20040;-41
2022/05/12 08:46:44;;;;;;;8.00;1.75;;;;;;;26.14;33.06;101947.34;5073958;28;20031;-47
2022/05/12 08:49:32;;;;;;;5.00;1.30;;;;;;;26.24;32.82;101948.38;5074166;28;20033;-51
2022/05/12 08:52:00;;;;;;;3.03;1.10;;;;;;;26.26;32.96;101953.69;5073684;28;20037;-47
2022/05/12 08:54:29;;;;;;;6.30;1.60;;;;;;;26.23;32.76;101952.78;5073811;28;20036;-44
2022/05/12 08:57:05;;;;;;;6.90;1.73;;;;;;;26.26;32.63;101951.06;5073420;28;20029;-45
2022/05/12 08:59:34;;;;;;;4.05;1.25;;;;;;;26.24;32.79;101948.38;5073915;28;20502;-42
2022/05/12 09:02:23;;;;;;;3.50;1.30;;;;;;;26.30;32.64;101961.66;5072278;28;20091;-50
2022/05/12 09:04:57;;;;;;;5.40;1.85;;;;;;;26.31;32.71;101952.91;5069320;28;20040;-42
2022/05/12 09:07:28;;;;;;;10.57;1.83;;;;;;;26.32;32.72;101957.31;5073711;28;20363;-50
2022/05/12 09:10:03;;;;;;;4.60;1.50;;;;;;;26.18;32.94;101929.88;5073594;28;20035;-43
2022/05/12 09:12:52;;;;;;;10.52;1.90;;;;;;;26.39;32.67;101969.72;5073655;28;20390;-51
2022/05/12 09:15:26;;;;;;;7.68;2.53;;;;;;;26.29;32.69;101952.00;5073328;28;20028;-42
2022/05/12 09:17:55;;;;;;;6.13;1.30;;;;;;;26.47;32.66;101971.63;5073280;28;20028;-42
2022/05/12 09:20:24;;;;;;;4.75;1.50;;;;;;;26.44;32.52;101967.19;5073413;28;20024;-43
2022/05/12 09:22:53;;;;;;;7.07;1.50;;;;;;;26.47;32.49;101969.88;5073145;28;20405;-45
2022/05/12 09:25:42;;;;;;;7.30;1.77;;;;;;;26.49;32.50;101978.66;5073063;28;20029;-43
2022/05/12 09:28:20;;;;;;;8.23;1.60;;;;;;;26.66;32.28;101983.34;5064103;28;20085;-43
2022/05/12 09:30:50;;;;;;;6.97;1.70;;;;;;;26.68;31.97;101979.00;5073654;28;20024;-47
2022/05/12 09:33:38;;;;;;;5.30;1.40;;;;;;;26.76;32.09;101987.03;5073421;28;20036;-46
2022/05/12 09:36:10;;;;;;;4.18;1.65;;;;;;;26.73;32.19;101992.22;5073398;28;20024;-48
2022/05/12 09:38:44;;;;;;;6.28;1.60;;;;;;;26.75;31.99;101988.78;5073316;28;20020;-42
2022/05/12 09:41:24;;;;;;;8.15;1.45;;;;;;;26.78;31.98;101987.94;5073295;28;20024;-41
2022/05/12 09:43:54;;;;;;;4.82;1.30;;;;;;;26.67;32.14;101957.06;5072102;28;20044;-41
2022/05/12 09:46:29;;;;;;;5.50;1.73;;;;;;;26.79;32.06;101984.47;5088222;28;20385;-49
2022/05/12 09:49:21;;;;;;;4.18;1.58;;;;;;;26.84;32.21;101972.31;5073177;28;20035;-49
2022/05/12 09:51:49;;;;;;;5.68;1.48;;;;;;;26.83;32.10;101971.41;5073292;28;20031;-47
2022/05/12 09:54:25;;;;;;;5.90;1.83;;;;;;;26.86;31.98;101973.22;5071828;28;20025;-41
2022/05/12 09:57:01;;;;;;;5.22;1.42;;;;;;;26.86;31.81;101980.22;5072903;28;20274;-50
2022/05/12 09:59:32;;;;;;;4.88;1.48;;;;;;;26.87;31.79;101981.97;5073017;28;20024;-40
2022/05/12 10:02:05;;;;;;;6.70;1.67;;;;;;;26.87;31.64;101976.72;5071765;28;20028;-42
2022/05/12 10:10:06;;;;;;;8.70;1.80;;;;;;;26.90;31.25;101987.31;5077205;28;20443;-41
2022/05/12 10:12:42;;;;;;;6.78;1.60;;;;;;;26.88;31.44;101963.59;5076087;28;20020;-44
2022/05/12 10:15:27;;;;;;;7.45;1.73;;;;;;;26.95;31.37;101964.59;5077047;28;20021;-41
2022/05/12 10:18:17;;;;;;;8.50;2.00;;;;;;;26.93;31.45;101964.53;5077024;28;20028;-51
2022/05/12 10:20:49;;;;;;;7.55;1.60;;;;;;;26.87;31.38;101956.56;5073132;28;20111;-50
2022/05/12 10:23:41;;;;;;;6.82;2.25;;;;;;;26.92;31.46;101957.50;5075515;28;20120;-43
2022/05/12 10:26:24;;;;;;;4.97;1.40;;;;;;;26.97;31.51;101958.47;5071700;28;20043;-47
2022/05/12 10:28:56;;;;;;;6.50;1.63;;;;;;;27.00;31.51;101949.72;5076647;28;20020;-41
2022/05/12 10:31:50;;;;;;;4.15;1.33;;;;;;;26.98;31.56;101949.72;5075374;28;20024;-41
2022/05/12 10:34:31;;;;;;;6.13;1.63;;;;;;;27.03;31.42;101948.91;5073263;28;20060;-41
2022/05/12 10:37:08;;;;;;;4.78;1.42;;;;;;;27.00;31.56;101952.34;5075294;28;20028;-42
2022/05/12 10:39:47;;;;;;;6.93;1.23;;;;;;;26.96;31.73;101947.94;5075358;28;20033;-47
2022/05/12 10:42:18;;;;;;;6.05;1.55;;;;;;;26.98;31.56;101949.72;5075223;28;20028;-42
2022/05/12 10:45:09;;;;;;;7.80;1.60;;;;;;;27.02;31.71;101952.41;5075912;28;20039;-47
2022/05/12 10:47:59;;;;;;;4.47;1.65;;;;;;;27.06;31.64;101954.19;5076363;28;20062;-48
2022/05/12 10:50:30;;;;;;;6.57;2.30;;;;;;;27.05;31.63;101957.72;5076613;28;20052;-49
2022/05/12 10:53:03;;;;;;;7.50;1.95;;;;;;;27.08;31.51;101958.66;5076219;28;20021;-49
2022/05/12 10:55:43;;;;;;;5.97;1.52;;;;;;;27.08;31.75;101963.91;5076225;28;20466;-51
2022/05/12 10:58:49;;;;;;;7.75;1.70;;;;;;;27.13;31.62;101970.16;5058496;28;20112;-41
2022/05/12 11:01:33;;;;;;;6.50;1.63;;;;;;;27.17;31.39;101980.69;5064484;28;20036;-50
2022/05/12 11:04:15;;;;;;;6.25;1.60;;;;;;;27.17;31.45;101981.59;5076067;28;20116;-41
2022/05/12 11:06:52;;;;;;;7.72;1.88;;;;;;;27.13;31.50;101987.69;5075073;28;20033;-42
2022/05/12 11:09:36;;;;;;;5.00;1.70;;;;;;;27.17;31.66;101973.69;5076233;28;20032;-49
2022/05/12 11:12:30;;;;;;;6.75;1.77;;;;;;;27.23;31.27;101978.19;5074692;28;20478;-50
2022/05/12 11:15:07;;;;;;;4.40;1.42;;;;;;;27.25;31.23;101982.59;5071765;28;20036;-50
2022/05/12 11:17:40;;;;;;;5.55;1.58;;;;;;;27.25;31.27;101979.09;5074448;28;20029;-41
2022/05/12 11:20:43;;;;;;;6.20;1.90;;;;;;;27.29;31.35;101986.19;5075573;28;20466;-47
2022/05/12 11:23:35;;;;;;;6.35;1.77;;;;;;;27.32;31.52;101986.19;5075642;28;20052;-48
2022/05/12 11:26:18;;;;;;;4.75;1.70;;;;;;;27.38;31.15;101978.41;5071015;28;20044;-41
2022/05/12 11:32:00;;;;;;;;;;;;;;;27.47;31.32;101972.41;5068588;28;20024;-49
2022/05/12 11:34:30;;;;;;;5.28;1.42;;;;;;;27.46;31.25;101959.22;5075492;28;19974;-44
2022/05/12 11:36:58;;;;;;;7.50;1.83;;;;;;;27.42;31.11;101972.31;5075473;28;20386;-45
2022/05/12 11:39:33;;;;;;;6.13;1.88;;;;;;;27.40;31.21;101976.69;5074078;28;20456;-43
2022/05/12 11:42:21;;;;;;;9.80;2.30;;;;;;;27.32;31.37;101983.56;5074280;28;20032;-46
2022/05/12 11:45:10;;;;;;;6.90;1.77;;;;;;;27.42;31.24;101982.84;5064153;28;20090;-42
2022/05/12 11:47:47;;;;;;;8.45;1.73;;;;;;;27.44;30.92;101986.41;5073537;28;20029;-49
2022/05/12 11:50:32;;;;;;;7.65;1.92;;;;;;;27.39;30.89;101987.19;5075378;28;20032;-47
2022/05/12 11:53:30;;;;;;;4.82;1.58;;;;;;;27.41;31.13;101982.81;5075278;28;20035;-47
2022/05/12 11:56:07;;;;;;;6.75;1.33;;;;;;;27.33;31.09;101984.47;5073756;28;20583;-46
2022/05/12 11:59:12;;;;;;;7.60;1.95;;;;;;;27.40;31.08;101988.94;5073166;28;20474;-44
2022/05/12 12:01:40;;;;;;;10.43;2.15;;;;;;;27.32;31.15;101986.19;5074667;28;20429;-44
2022/05/12 12:04:15;;;;;;;7.63;1.80;;;;;;;27.37;31.00;101986.28;5074740;28;20386;-44
2022/05/12 12:06:44;;;;;;;10.20;1.55;;;;;;;27.39;31.09;101992.44;5073276;28;20032;-55
2022/05/12 12:09:39;;;;;;;10.27;2.22;;;;;;;27.46;30.95;101994.34;5074921;28;20024;-49